Time;durP1;ratioP1;P1;durP2;ratioP2;P2;SDS_P1;SDS_P2;PMS_P1;PMS_P2;Temp;Humidity;BMP_temperature;BMP_pressure;BME280_temperature;BME280_humidity;BME280_pressure;Samples;Min_cycle;Max_cycle;Signal;HPM_P1;HPM_P2
2022/05/02 00:00:16;;;;;;;;;;;20.70;35.10;;;;;;8334792;28;19913;-45
2022/05/02 00:04:16;;;;;;;;;;;20.70;35.10;;;;;;8334941;28;19925;-46
2022/05/02 00:08:17;;;;;;;;;;;20.70;35.10;;;;;;8334808;28;19923;-46
2022/05/02 00:12:18;;;;;;;;;;;20.70;35.20;;;;;;8334084;28;19924;-46
2022/05/02 00:16:19;;;;;;;;;;;20.60;35.10;;;;;;8334480;28;19913;-45
2022/05/02 00:20:19;;;;;;;;;;;20.70;35.20;;;;;;8334617;28;19925;-45
2022/05/02 00:24:20;;;;;;;;;;;20.60;35.10;;;;;;8333631;28;19925;-45
2022/05/02 00:28:20;;;;;;;;;;;20.60;35.10;;;;;;8334278;28;20345;-46
2022/05/02 00:32:21;;;;;;;;;;;20.60;35.10;;;;;;8333954;28;19944;-46
2022/05/02 00:36:21;;;;;;;;;;;20.60;35.10;;;;;;8333324;28;19917;-47
2022/05/02 00:40:23;;;;;;;;;;;20.60;35.10;;;;;;8333573;28;20390;-47
2022/05/02 00:44:23;;;;;;;;;;;20.60;35.10;;;;;;8333102;28;20378;-45
2022/05/02 00:48:24;;;;;;;;;;;20.60;35.10;;;;;;8332989;28;19925;-45
2022/05/02 00:52:24;;;;;;;;;;;20.50;35.10;;;;;;8333261;28;20005;-45
2022/05/02 00:56:25;;;;;;;;;;;20.60;35.20;;;;;;8333395;28;19913;-46
2022/05/02 01:00:26;;;;;;;;;;;20.50;35.10;;;;;;8332860;28;19923;-45
2022/05/02 01:04:26;;;;;;;;;;;20.50;35.10;;;;;;8333102;28;19925;-47
2022/05/02 01:08:30;;;;;;;;;;;20.50;35.10;;;;;;8343891;28;20453;-45
2022/05/02 01:12:30;;;;;;;;;;;20.50;35.10;;;;;;8365236;28;19921;-46
2022/05/02 01:16:31;;;;;;;;;;;20.50;35.20;;;;;;8365801;28;19991;-45
2022/05/02 01:20:31;;;;;;;;;;;20.50;35.10;;;;;;8365626;28;19921;-46
2022/05/02 01:24:49;;;;;;;;;;;20.50;35.10;;;;;;8364735;28;19929;-45
2022/05/02 01:28:51;;;;;;;;;;;20.50;35.70;;;;;;8365171;28;19917;-46
2022/05/02 01:32:51;;;;;;;;;;;20.40;35.10;;;;;;8364793;28;19921;-45
2022/05/02 01:36:52;;;;;;;;;;;20.40;35.10;;;;;;8365158;28;19917;-45
2022/05/02 01:40:52;;;;;;;;;;;20.40;35.10;;;;;;8365232;28;20369;-48
2022/05/02 01:44:53;;;;;;;;;;;20.40;35.10;;;;;;8364133;28;19929;-46
2022/05/02 01:48:54;;;;;;;;;;;20.40;35.10;;;;;;8364576;28;20381;-45
2022/05/02 01:52:55;;;;;;;;;;;20.40;35.10;;;;;;8364165;28;20442;-45
2022/05/02 01:56:56;;;;;;;;;;;20.40;35.10;;;;;;8363924;28;19913;-46
2022/05/02 02:00:56;;;;;;;;;;;20.40;35.10;;;;;;8364923;28;19939;-46
2022/05/02 02:09:16;;;;;;;;;;;20.40;35.20;;;;;;8363708;28;20289;-45
2022/05/02 02:13:17;;;;;;;;;;;20.30;35.10;;;;;;8364075;28;19999;-45
2022/05/02 02:17:17;;;;;;;;;;;20.30;35.10;;;;;;8363846;28;19971;-45
2022/05/02 02:21:17;;;;;;;;;;;20.30;35.10;;;;;;8363439;28;19913;-44
2022/05/02 02:25:18;;;;;;;;;;;20.30;35.10;;;;;;8363550;28;19925;-45
2022/05/02 02:29:18;;;;;;;;;;;20.30;35.10;;;;;;8363429;28;19917;-46
2022/05/02 02:33:20;;;;;;;;;;;20.30;35.10;;;;;;8362904;28;19923;-45
2022/05/02 02:37:21;;;;;;;;;;;20.30;35.10;;;;;;8363376;28;19913;-46
2022/05/02 02:41:21;;;;;;;;;;;20.20;35.10;;;;;;8363522;28;19923;-46
2022/05/02 02:45:22;;;;;;;;;;;20.20;35.10;;;;;;8362730;28;19935;-46
2022/05/02 02:49:22;;;;;;;;;;;20.20;35.10;;;;;;8363357;28;19920;-46
2022/05/02 02:53:23;;;;;;;;;;;20.20;35.10;;;;;;8362992;28;20332;-45
2022/05/02 02:57:23;;;;;;;;;;;20.20;35.10;;;;;;8362428;28;19966;-45
2022/05/02 03:01:24;;;;;;;;;;;20.20;35.10;;;;;;8363136;28;19917;-45
2022/05/02 03:09:43;;;;;;;;;;;20.20;35.10;;;;;;8369375;28;19971;-47
2022/05/02 03:13:44;;;;;;;;;;;20.20;35.10;;;;;;8369271;28;19916;-45
2022/05/02 03:17:44;;;;;;;;;;;20.10;35.10;;;;;;8368790;28;20024;-45
2022/05/02 03:21:44;;;;;;;;;;;20.10;35.10;;;;;;8369381;28;19913;-46
2022/05/02 03:25:45;;;;;;;;;;;20.10;35.10;;;;;;8369143;28;20019;-47
2022/05/02 03:29:45;;;;;;;;;;;20.10;35.10;;;;;;8368474;28;19917;-47
2022/05/02 03:33:46;;;;;;;;;;;20.10;35.10;;;;;;8368745;28;19917;-46
2022/05/02 03:37:46;;;;;;;;;;;20.10;35.10;;;;;;8368580;28;19912;-47
2022/05/02 03:41:47;;;;;;;;;;;20.10;35.10;;;;;;8368362;28;19970;-49
2022/05/02 03:45:47;;;;;;;;;;;20.10;35.10;;;;;;8368696;28;20011;-45
2022/05/02 03:49:48;;;;;;;;;;;20.10;35.10;;;;;;8368182;28;19916;-47
2022/05/02 03:53:48;;;;;;;;;;;20.10;35.10;;;;;;8367590;28;20294;-46
2022/05/02 03:57:49;;;;;;;;;;;20.10;35.10;;;;;;8368312;28;19974;-47
2022/05/02 04:01:49;;;;;;;;;;;20.10;35.10;;;;;;8368392;28;19912;-46
2022/05/02 04:05:50;;;;;;;;;;;20.10;35.10;;;;;;8366549;28;20075;-46
2022/05/02 04:09:50;;;;;;;;;;;20.10;35.20;;;;;;8367720;28;20004;-46
2022/05/02 04:13:50;;;;;;;;;;;20.10;35.10;;;;;;8367668;28;20015;-46
2022/05/02 04:17:51;;;;;;;;;;;20.10;35.00;;;;;;8366702;28;19913;-48
2022/05/02 04:21:51;;;;;;;;;;;20.20;35.00;;;;;;8367765;28;20374;-46
2022/05/02 04:25:52;;;;;;;;;;;20.20;35.00;;;;;;8367236;28;19967;-47
2022/05/02 04:29:52;;;;;;;;;;;20.30;35.00;;;;;;8366545;28;19921;-50
2022/05/02 04:33:53;;;;;;;;;;;20.30;35.00;;;;;;8366903;28;19920;-49
2022/05/02 04:37:53;;;;;;;;;;;20.40;35.50;;;;;;8367101;28;19913;-48
2022/05/02 04:41:54;;;;;;;;;;;20.40;35.00;;;;;;8366362;28;19978;-47
2022/05/02 04:45:54;;;;;;;;;;;20.40;34.90;;;;;;8366705;28;19935;-47
2022/05/02 04:49:54;;;;;;;;;;;20.50;34.90;;;;;;8366373;28;19924;-47
2022/05/02 04:53:55;;;;;;;;;;;20.50;34.90;;;;;;8365735;28;20290;-46
2022/05/02 04:57:55;;;;;;;;;;;20.50;34.90;;;;;;8366395;28;19913;-46
2022/05/02 05:01:58;;;;;;;;;;;20.50;34.90;;;;;;8365910;28;19917;-46
2022/05/02 05:05:58;;;;;;;;;;;20.50;34.80;;;;;;8365875;28;20019;-46
2022/05/02 05:09:58;;;;;;;;;;;20.50;34.80;;;;;;8365727;28;19963;-47
2022/05/02 05:18:43;;;;;;;;;;;20.50;34.80;;;;;;8365167;28;20321;-50
2022/05/02 05:23:02;;;;;;;;;;;20.50;34.80;;;;;;8365532;28;19916;-46
2022/05/02 05:27:11;;;;;;;;;;;20.50;35.30;;;;;;8364100;28;20004;-45
2022/05/02 05:31:29;;;;;;;;;;;20.50;34.80;;;;;;8365309;28;19927;-45
2022/05/02 05:35:29;;;;;;;;;;;20.40;34.80;;;;;;8368166;28;19913;-47
2022/05/02 05:39:43;;;;;;;;;;;20.40;34.80;;;;;;8364230;28;20292;-46
2022/05/02 05:43:51;;;;;;;;;;;20.40;34.80;;;;;;8364762;28;20408;-47
2022/05/02 05:48:00;;;;;;;;;;;20.40;34.80;;;;;;8364366;28;19921;-46
2022/05/02 05:52:10;;;;;;;;;;;20.40;34.80;;;;;;8364428;28;19978;-46
2022/05/02 05:56:19;;;;;;;;;;;20.40;34.80;;;;;;8364448;28;19952;-46
2022/05/02 06:00:19;;;;;;;;;;;20.40;34.80;;;;;;8363734;28;19917;-46
2022/05/02 06:04:21;;;;;;;;;;;20.40;34.80;;;;;;8364205;28;20340;-49
2022/05/02 06:08:22;;;;;;;;;;;20.50;34.80;;;;;;8363980;28;19936;-46
2022/05/02 06:12:24;;;;;;;;;;;20.50;34.80;;;;;;8363314;28;19921;-46
2022/05/02 06:20:45;;;;;;;;;;;20.40;34.80;;;;;;8365392;28;19924;-45
2022/05/02 06:24:46;;;;;;;;;;;20.40;34.80;;;;;;8363493;28;19925;-48
2022/05/02 06:28:48;;;;;;;;;;;20.40;34.80;;;;;;8363331;28;20320;-46
2022/05/02 06:32:51;;;;;;;;;;;20.40;34.80;;;;;;8363226;28;19913;-46
2022/05/02 06:36:56;;;;;;;;;;;20.40;34.70;;;;;;8363084;28;19917;-45
2022/05/02 06:41:14;;;;;;;;;;;20.40;34.70;;;;;;8363266;28;20382;-47
2022/05/02 06:45:34;;;;;;;;;;;20.40;34.70;;;;;;8362516;28;19924;-46
2022/05/02 06:49:35;;;;;;;;;;;20.50;34.60;;;;;;8362973;28;19917;-46
2022/05/02 06:53:39;;;;;;;;;;;20.50;34.50;;;;;;8362689;28;19912;-46
2022/05/02 06:57:39;;;;;;;;;;;20.60;34.50;;;;;;8363231;28;19917;-45
2022/05/02 07:01:43;;;;;;;;;;;20.70;34.40;;;;;;8362861;28;19928;-46
2022/05/02 07:05:54;;;;;;;;;;;20.80;34.30;;;;;;8361957;28;20268;-46
2022/05/02 07:10:04;;;;;;;;;;;20.90;34.10;;;;;;8362976;28;19916;-47
2022/05/02 07:14:16;;;;;;;;;;;21.00;34.00;;;;;;8362856;28;19940;-48
2022/05/02 07:18:27;;;;;;;;;;;21.00;33.90;;;;;;8362473;28;19913;-46
2022/05/02 07:22:32;;;;;;;;;;;21.10;33.90;;;;;;8362664;28;19917;-48
2022/05/02 07:26:34;;;;;;;;;;;21.10;34.00;;;;;;8362262;28;19935;-46
2022/05/02 07:30:34;;;;;;;;;;;21.10;34.10;;;;;;8361937;28;19917;-46
2022/05/02 07:34:36;;;;;;;;;;;21.10;34.10;;;;;;8362351;28;19917;-45
2022/05/02 07:38:36;;;;;;;;;;;21.10;34.10;;;;;;8362074;28;19913;-47
2022/05/02 07:42:37;;;;;;;;;;;21.10;34.20;;;;;;8362357;28;19938;-47
2022/05/02 07:46:38;;;;;;;;;;;21.10;34.20;;;;;;8362387;28;20377;-47
2022/05/02 07:50:39;;;;;;;;;;;21.10;34.20;;;;;;8362906;28;20321;-48
2022/05/02 07:54:40;;;;;;;;;;;21.00;34.20;;;;;;8367961;28;19974;-47
2022/05/02 07:58:41;;;;;;;;;;;21.00;34.20;;;;;;8348617;28;19918;-46
2022/05/02 08:02:42;;;;;;;;;;;21.00;34.30;;;;;;8333901;28;19917;-45
2022/05/02 08:06:46;;;;;;;;;;;21.00;34.30;;;;;;8353427;28;19998;-46
2022/05/02 08:10:49;;;;;;;;;;;21.00;34.40;;;;;;8350575;28;19917;-45
2022/05/02 08:15:11;;;;;;;;;;;21.00;34.40;;;;;;8333925;28;20432;-46
2022/05/02 08:19:31;;;;;;;;;;;21.00;34.50;;;;;;8334491;28;19913;-46
2022/05/02 08:27:56;;;;;;;;;;;20.90;34.50;;;;;;8357797;28;20412;-46
2022/05/02 08:32:10;;;;;;;;;;;21.00;34.50;;;;;;8367003;28;20000;-44
2022/05/02 08:36:20;;;;;;;;;;;21.00;34.60;;;;;;8366122;28;19924;-46
2022/05/02 08:40:24;;;;;;;;;;;20.90;34.50;;;;;;8366602;28;20298;-45
2022/05/02 08:44:42;;;;;;;;;;;21.00;34.60;;;;;;8352652;28;19932;-46
2022/05/02 08:53:21;;;;;;;;;;;21.00;34.60;;;;;;8336503;28;19925;-48
2022/05/02 08:57:33;;;;;;;;;;;21.00;34.60;;;;;;8332607;28;20314;-46
2022/05/02 09:01:52;;;;;;;;;;;21.00;34.60;;;;;;8346782;28;19917;-47
2022/05/02 09:05:58;;;;;;;;;;;21.00;34.60;;;;;;8341199;28;20275;-47
2022/05/02 09:10:06;;;;;;;;;;;21.00;34.60;;;;;;8332933;28;19920;-45
2022/05/02 09:14:21;;;;;;;;;;;21.00;34.60;;;;;;8332714;28;19913;-46
2022/05/02 09:18:33;;;;;;;;;;;21.00;34.60;;;;;;8344858;28;19917;-47
2022/05/02 09:22:53;;;;;;;;;;;21.10;34.70;;;;;;8365483;28;19917;-50
2022/05/02 09:27:12;;;;;;;;;;;21.00;34.70;;;;;;8351966;28;19972;-47
2022/05/02 09:31:16;;;;;;;;;;;21.00;34.70;;;;;;8349242;28;19917;-47
2022/05/02 09:35:33;;;;;;;;;;;21.10;34.70;;;;;;8358444;28;19944;-46
2022/05/02 09:39:46;;;;;;;;;;;21.10;34.70;;;;;;8345335;28;20336;-47
2022/05/02 09:53:03;;;;;;;;;;;21.10;34.70;;;;;;8357925;28;20297;-45
2022/05/02 09:57:09;;;;;;;;;;;21.10;34.80;;;;;;8363511;28;19917;-45
2022/05/02 10:01:25;;;;;;;;;;;21.10;34.70;;;;;;8341749;28;20366;-46
2022/05/02 10:05:29;;;;;;;;;;;21.10;34.70;;;;;;8331443;28;20424;-45
2022/05/02 10:09:41;;;;;;;;;;;21.10;34.70;;;;;;8330580;28;20283;-47
2022/05/02 10:13:52;;;;;;;;;;;21.10;34.70;;;;;;8330079;28;20059;-48
2022/05/02 10:18:11;;;;;;;;;;;21.20;34.80;;;;;;8330298;28;19928;-49
2022/05/02 10:22:24;;;;;;;;;;;21.10;34.70;;;;;;8330540;28;19917;-47
2022/05/02 10:26:41;;;;;;;;;;;21.10;34.70;;;;;;8347087;28;19925;-45
2022/05/02 10:31:03;;;;;;;;;;;21.20;34.70;;;;;;8388605;28;19917;-47
2022/05/02 10:35:07;;;;;;;;;;;21.20;34.70;;;;;;8330544;28;20281;-46
2022/05/02 10:39:26;;;;;;;;;;;21.20;34.70;;;;;;8329802;28;20294;-46
2022/05/02 10:43:30;;;;;;;;;;;21.20;34.70;;;;;;8337023;28;19931;-47
2022/05/02 10:47:38;;;;;;;;;;;21.20;34.70;;;;;;8369899;28;20019;-45
2022/05/02 10:51:40;;;;;;;;;;;21.20;34.60;;;;;;8375408;28;20362;-47
2022/05/02 10:55:50;;;;;;;;;;;21.30;34.60;;;;;;8330186;28;19919;-46
2022/05/02 10:59:52;;;;;;;;;;;21.30;34.60;;;;;;8358240;28;20055;-45
2022/05/02 11:04:10;;;;;;;;;;;21.30;34.60;;;;;;8363023;28;19925;-45
2022/05/02 11:08:11;;;;;;;;;;;21.30;34.60;;;;;;8362905;28;20277;-47
2022/05/02 11:12:15;;;;;;;;;;;21.30;34.50;;;;;;8362193;28;20377;-46
2022/05/02 11:16:22;;;;;;;;;;;21.40;34.60;;;;;;8362525;28;19916;-46
2022/05/02 11:20:43;;;;;;;;;;;21.30;34.50;;;;;;8362907;28;20369;-46
2022/05/02 11:25:03;;;;;;;;;;;21.40;34.60;;;;;;8362863;28;19937;-48
2022/05/02 11:29:36;;;;;;;;;;;21.40;34.60;;;;;;8369144;28;19967;-48
2022/05/02 11:33:43;;;;;;;;;;;21.40;34.60;;;;;;8299852;28;19917;-46
2022/05/02 11:37:46;;;;;;;;;;;21.40;34.50;;;;;;8335568;28;19917;-46
2022/05/02 11:41:50;;;;;;;;;;;21.50;34.60;;;;;;8335048;28;20012;-47
2022/05/02 11:46:22;;;;;;;;;;;21.50;34.50;;;;;;8335279;28;19928;-46
2022/05/02 11:50:27;;;;;;;;;;;21.50;34.40;;;;;;8334722;28;20374;-46
2022/05/02 11:54:27;;;;;;;;;;;21.50;34.40;;;;;;8334605;28;20405;-45
2022/05/02 11:58:43;;;;;;;;;;;21.50;34.40;;;;;;8335042;28;19917;-46
2022/05/02 12:02:48;;;;;;;;;;;21.50;34.40;;;;;;8334348;28;20378;-46
2022/05/02 12:06:58;;;;;;;;;;;21.60;34.40;;;;;;8334439;28;19948;-51
2022/05/02 12:11:05;;;;;;;;;;;21.60;34.40;;;;;;8334600;28;19917;-45
2022/05/02 12:15:13;;;;;;;;;;;21.60;34.40;;;;;;8334313;28;20291;-46
2022/05/02 12:19:27;;;;;;;;;;;21.60;34.30;;;;;;8334280;28;20366;-46
2022/05/02 12:23:31;;;;;;;;;;;21.60;34.40;;;;;;8334110;28;19925;-46
2022/05/02 12:27:33;;;;;;;;;;;21.70;34.30;;;;;;8333420;28;20063;-48
2022/05/02 12:31:37;;;;;;;;;;;21.70;34.30;;;;;;8334082;28;19921;-46
2022/05/02 12:35:42;;;;;;;;;;;21.70;34.30;;;;;;8333636;28;20406;-46
2022/05/02 12:39:45;;;;;;;;;;;21.70;34.30;;;;;;8333541;28;19917;-46
2022/05/02 12:43:50;;;;;;;;;;;21.70;34.30;;;;;;8345515;28;19932;-47
2022/05/02 12:47:53;;;;;;;;;;;21.70;34.40;;;;;;8332861;28;19917;-49
2022/05/02 12:51:55;;;;;;;;;;;21.70;34.30;;;;;;8333508;28;20480;-45
2022/05/02 12:56:00;;;;;;;;;;;21.70;34.30;;;;;;8333318;28;19968;-46
2022/05/02 13:04:22;;;;;;;;;;;21.80;34.20;;;;;;8332282;28;19932;-46
2022/05/02 13:08:29;;;;;;;;;;;21.80;34.20;;;;;;8332724;28;19917;-46
2022/05/02 13:12:29;;;;;;;;;;;21.80;34.20;;;;;;8332008;28;19917;-46
2022/05/02 13:16:41;;;;;;;;;;;21.80;34.20;;;;;;8332405;28;20404;-46
2022/05/02 13:20:44;;;;;;;;;;;21.80;34.20;;;;;;8332091;28;20385;-47
2022/05/02 13:24:52;;;;;;;;;;;21.80;34.10;;;;;;8332472;28;19929;-47
2022/05/02 13:29:07;;;;;;;;;;;21.90;34.20;;;;;;8332328;28;20016;-45
2022/05/02 13:33:08;;;;;;;;;;;21.80;34.10;;;;;;8331621;28;20000;-50
2022/05/02 13:37:10;;;;;;;;;;;21.80;34.10;;;;;;8331841;28;19952;-48
2022/05/02 13:41:23;;;;;;;;;;;21.90;34.20;;;;;;8332020;28;19914;-49
2022/05/02 13:45:29;;;;;;;;;;;21.80;34.10;;;;;;8331212;28;19936;-46
2022/05/02 13:49:34;;;;;;;;;;;21.90;34.20;;;;;;8331065;28;20012;-49
2022/05/02 13:53:44;;;;;;;;;;;21.90;34.20;;;;;;8331271;28;19917;-46
2022/05/02 13:58:00;;;;;;;;;;;21.90;34.20;;;;;;8330966;28;19917;-46
2022/05/02 14:02:19;;;;;;;;;;;21.90;34.10;;;;;;8331263;28;20378;-47
2022/05/02 14:06:25;;;;;;;;;;;21.90;34.10;;;;;;8330868;28;19936;-46
2022/05/02 14:10:27;;;;;;;;;;;21.90;34.10;;;;;;8335607;28;20008;-45
2022/05/02 14:14:29;;;;;;;;;;;21.90;34.10;;;;;;8330880;28;20389;-44
2022/05/02 14:18:45;;;;;;;;;;;21.90;34.10;;;;;;8329963;28;19975;-47
2022/05/02 14:22:46;;;;;;;;;;;21.90;34.10;;;;;;8330546;28;20431;-45
2022/05/02 14:26:57;;;;;;;;;;;21.90;34.20;;;;;;8330063;28;19929;-46
2022/05/02 14:31:01;;;;;;;;;;;21.90;34.10;;;;;;8330541;28;19917;-45
2022/05/02 14:35:02;;;;;;;;;;;21.90;34.10;;;;;;8356301;28;19924;-45
2022/05/02 14:39:05;;;;;;;;;;;21.80;34.00;;;;;;8362300;28;19916;-45
2022/05/02 14:43:07;;;;;;;;;;;21.90;34.10;;;;;;8362777;28;19913;-46
2022/05/02 14:47:07;;;;;;;;;;;21.90;34.10;;;;;;8362735;28;19916;-49
2022/05/02 14:51:09;;;;;;;;;;;21.90;34.10;;;;;;8362711;28;19970;-45
2022/05/02 14:55:09;;;;;;;;;;;21.90;34.10;;;;;;8363074;28;19963;-46
2022/05/02 14:59:13;;;;;;;;;;;21.90;34.10;;;;;;8362858;28;19924;-46
2022/05/02 15:03:15;;;;;;;;;;;21.90;34.10;;;;;;8367784;28;19928;-47
2022/05/02 15:07:18;;;;;;;;;;;21.90;34.10;;;;;;8369528;28;19917;-46
2022/05/02 15:11:24;;;;;;;;;;;21.90;34.10;;;;;;8369469;28;19913;-47
2022/05/02 15:15:34;;;;;;;;;;;21.90;34.10;;;;;;8368515;28;19917;-45
2022/05/02 15:19:45;;;;;;;;;;;21.90;34.00;;;;;;8368872;28;19917;-46
2022/05/02 15:23:45;;;;;;;;;;;21.90;34.00;;;;;;8368312;28;19931;-46
2022/05/02 15:36:39;;;;;;;;;;;21.90;33.90;;;;;;8372936;28;20380;-45
2022/05/02 15:36:46;;;;;;;;;;;22.00;33.90;;;;;;8367891;28;20340;-45
2022/05/02 15:40:46;;;;;;;;;;;22.00;33.90;;;;;;8368168;28;19917;-47
2022/05/02 15:44:47;;;;;;;;;;;22.00;34.40;;;;;;8367893;28;19925;-46
2022/05/02 15:48:47;;;;;;;;;;;22.00;33.80;;;;;;8368297;28;19921;-45
2022/05/02 15:52:57;;;;;;;;;;;22.00;33.80;;;;;;8368175;28;19917;-47
2022/05/02 15:56:58;;;;;;;;;;;22.00;33.70;;;;;;8367700;28;19913;-46
2022/05/02 16:01:10;;;;;;;;;;;22.00;33.70;;;;;;8367869;28;19923;-45
2022/05/02 16:05:14;;;;;;;;;;;22.10;33.80;;;;;;8371786;28;19929;-46
2022/05/02 16:13:35;;;;;;;;;;;22.10;33.70;;;;;;8367107;28;19923;-46
2022/05/02 16:17:36;;;;;;;;;;;22.10;33.70;;;;;;8348806;28;19944;-45
2022/05/02 16:21:37;;;;;;;;;;;22.10;33.70;;;;;;8367181;28;19913;-46
2022/05/02 16:25:39;;;;;;;;;;;22.10;33.70;;;;;;8367000;28;20378;-46
2022/05/02 16:29:39;;;;;;;;;;;22.10;33.70;;;;;;8366558;28;20320;-50
2022/05/02 16:33:40;;;;;;;;;;;22.10;33.70;;;;;;8366493;28;19917;-45
2022/05/02 16:37:41;;;;;;;;;;;22.10;33.70;;;;;;8366770;28;20388;-47
2022/05/02 16:41:45;;;;;;;;;;;22.10;33.80;;;;;;8366034;28;19923;-45
2022/05/02 16:45:49;;;;;;;;;;;22.00;33.70;;;;;;8366571;28;19925;-45
2022/05/02 16:49:51;;;;;;;;;;;22.00;33.80;;;;;;8366209;28;19917;-46
2022/05/02 16:53:52;;;;;;;;;;;22.00;33.70;;;;;;8365854;28;20289;-47
2022/05/02 16:58:01;;;;;;;;;;;22.00;33.80;;;;;;8366173;28;19923;-47
2022/05/02 17:02:02;;;;;;;;;;;22.00;33.80;;;;;;8366405;28;19920;-48
2022/05/02 17:06:05;;;;;;;;;;;22.00;33.80;;;;;;8365764;28;19925;-48
2022/05/02 17:10:07;;;;;;;;;;;22.00;33.80;;;;;;8365632;28;19924;-46
2022/05/02 17:14:11;;;;;;;;;;;21.90;33.80;;;;;;8364908;28;21226;-46
2022/05/02 17:18:18;;;;;;;;;;;21.90;33.80;;;;;;8365149;28;19967;-45
2022/05/02 17:22:22;;;;;;;;;;;21.90;33.80;;;;;;8365426;28;19991;-46
2022/05/02 17:26:24;;;;;;;;;;;21.90;33.80;;;;;;8364682;28;19925;-45
2022/05/02 17:30:25;;;;;;;;;;;21.90;33.80;;;;;;8364624;28;19916;-47
2022/05/02 17:34:26;;;;;;;;;;;21.90;33.80;;;;;;8364933;28;19924;-48
2022/05/02 17:38:29;;;;;;;;;;;21.90;33.90;;;;;;8364722;28;19925;-47
2022/05/02 17:42:30;;;;;;;;;;;21.90;33.90;;;;;;8364247;28;19913;-47
2022/05/02 17:46:33;;;;;;;;;;;21.90;33.90;;;;;;8364735;28;20414;-46
2022/05/02 17:50:34;;;;;;;;;;;21.90;33.90;;;;;;8364560;28;19921;-46
2022/05/02 17:54:45;;;;;;;;;;;21.90;33.90;;;;;;8363723;28;19949;-48
2022/05/02 17:58:56;;;;;;;;;;;21.90;33.90;;;;;;8363968;28;19928;-45
2022/05/02 18:03:08;;;;;;;;;;;21.90;33.90;;;;;;8363624;28;19956;-47
2022/05/02 18:07:16;;;;;;;;;;;21.90;33.90;;;;;;8363896;28;20340;-45
2022/05/02 18:15:40;;;;;;;;;;;21.90;34.00;;;;;;8363371;28;19940;-46
2022/05/02 18:19:49;;;;;;;;;;;21.80;34.00;;;;;;8363322;28;19917;-46
2022/05/02 18:23:50;;;;;;;;;;;21.80;34.00;;;;;;8362670;28;19932;-46
2022/05/02 18:27:52;;;;;;;;;;;21.90;34.10;;;;;;8363716;28;19913;-45
2022/05/02 18:31:54;;;;;;;;;;;21.80;34.10;;;;;;8363288;28;20378;-45
2022/05/02 18:36:08;;;;;;;;;;;21.80;34.10;;;;;;8362416;28;20297;-46
2022/05/02 18:40:09;;;;;;;;;;;21.80;34.20;;;;;;8363024;28;19921;-45
2022/05/02 18:44:11;;;;;;;;;;;21.80;34.20;;;;;;8362851;28;19929;-46
2022/05/02 18:52:58;;;;;;;;;;;21.80;34.20;;;;;;8368647;28;19924;-47
2022/05/02 18:57:06;;;;;;;;;;;21.80;34.30;;;;;;8362290;28;19917;-45
2022/05/02 19:01:08;;;;;;;;;;;21.80;34.30;;;;;;8362637;28;19917;-46
2022/05/02 19:05:09;;;;;;;;;;;21.80;34.30;;;;;;8361489;28;20409;-45
2022/05/02 19:09:10;;;;;;;;;;;21.80;34.30;;;;;;8361969;28;20059;-44
2022/05/02 19:13:11;;;;;;;;;;;21.70;34.30;;;;;;8362833;28;19919;-44
2022/05/02 19:17:15;;;;;;;;;;;21.70;34.30;;;;;;8362570;28;19917;-45
2022/05/02 19:21:41;;;;;;;;;;;21.70;34.30;;;;;;8361855;28;20298;-45
2022/05/02 19:25:42;;;;;;;;;;;21.70;34.30;;;;;;8362322;28;19925;-45
2022/05/02 19:29:47;;;;;;;;;;;21.70;34.40;;;;;;8362003;28;19917;-45
2022/05/02 19:33:51;;;;;;;;;;;21.70;34.40;;;;;;8362486;28;19920;-45
2022/05/02 19:42:21;;;;;;;;;;;21.70;34.50;;;;;;8363357;28;20285;-45
2022/05/02 19:46:23;;;;;;;;;;;21.70;34.50;;;;;;8363129;28;19925;-46
2022/05/02 19:50:24;;;;;;;;;;;21.70;34.50;;;;;;8368407;28;19921;-44
2022/05/02 19:54:25;;;;;;;;;;;21.70;34.50;;;;;;8367396;28;20353;-45
2022/05/02 19:58:26;;;;;;;;;;;21.80;34.50;;;;;;8368331;28;20008;-46
2022/05/02 20:02:27;;;;;;;;;;;21.80;34.40;;;;;;8367482;28;19928;-47
2022/05/02 20:06:27;;;;;;;;;;;21.90;34.50;;;;;;8367898;28;19924;-46
2022/05/02 20:10:27;;;;;;;;;;;21.80;34.40;;;;;;8368158;28;19913;-47
2022/05/02 20:14:28;;;;;;;;;;;21.80;34.40;;;;;;8367612;28;19925;-46
2022/05/02 20:18:28;;;;;;;;;;;21.80;34.40;;;;;;8367254;28;19913;-44
2022/05/02 20:22:29;;;;;;;;;;;21.80;34.40;;;;;;8367349;28;19917;-45
2022/05/02 20:26:29;;;;;;;;;;;21.90;34.50;;;;;;8367062;28;19920;-46
2022/05/02 20:30:30;;;;;;;;;;;21.90;34.50;;;;;;8366692;28;19944;-45
2022/05/02 20:38:50;;;;;;;;;;;21.80;34.40;;;;;;8366577;28;20002;-45
2022/05/02 20:42:51;;;;;;;;;;;21.80;34.40;;;;;;8366693;28;19917;-44
2022/05/02 20:47:12;;;;;;;;;;;21.80;34.40;;;;;;8366552;28;19984;-44
2022/05/02 20:51:12;;;;;;;;;;;21.80;34.40;;;;;;8365182;28;19939;-44
2022/05/02 20:55:15;;;;;;;;;;;21.80;34.40;;;;;;8366169;28;19959;-44
2022/05/02 20:59:15;;;;;;;;;;;21.80;34.40;;;;;;8366288;28;20400;-46
2022/05/02 21:03:16;;;;;;;;;;;21.80;34.40;;;;;;8365473;28;19921;-48
2022/05/02 21:07:17;;;;;;;;;;;21.80;34.40;;;;;;8365924;28;19931;-46
2022/05/02 21:11:36;;;;;;;;;;;21.80;34.40;;;;;;8365871;28;19925;-44
2022/05/02 21:15:51;;;;;;;;;;;21.80;34.40;;;;;;8365662;28;20326;-45
2022/05/02 21:20:02;;;;;;;;;;;21.80;34.40;;;;;;8365492;28;19912;-47
2022/05/02 21:24:11;;;;;;;;;;;21.80;34.40;;;;;;8364985;28;19921;-46
2022/05/02 21:28:18;;;;;;;;;;;21.80;34.40;;;;;;8365270;28;20291;-44
2022/05/02 21:32:21;;;;;;;;;;;21.70;34.40;;;;;;8365201;28;20358;-44
2022/05/02 21:36:22;;;;;;;;;;;21.70;34.40;;;;;;8364513;28;19949;-43
2022/05/02 21:40:25;;;;;;;;;;;21.80;34.50;;;;;;8365309;28;19917;-47
2022/05/02 21:44:25;;;;;;;;;;;21.70;34.50;;;;;;8364878;28;19972;-46
2022/05/02 21:48:26;;;;;;;;;;;21.70;34.50;;;;;;8364183;28;19920;-50
2022/05/02 21:52:26;;;;;;;;;;;21.70;34.50;;;;;;8364345;28;19921;-46
2022/05/02 21:56:27;;;;;;;;;;;21.70;34.50;;;;;;8364376;28;19917;-49
2022/05/02 22:00:27;;;;;;;;;;;21.70;34.60;;;;;;8362905;28;19923;-46
2022/05/02 22:04:28;;;;;;;;;;;21.70;35.10;;;;;;8364597;28;19925;-45
2022/05/02 22:08:28;;;;;;;;;;;21.60;34.60;;;;;;8362531;28;19921;-45
2022/05/02 22:12:29;;;;;;;;;;;21.60;34.60;;;;;;8363450;28;19921;-45
2022/05/02 22:16:29;;;;;;;;;;;21.60;34.60;;;;;;8363694;28;19917;-46
2022/05/02 22:20:31;;;;;;;;;;;21.60;34.60;;;;;;8363584;28;19917;-46
2022/05/02 22:24:31;;;;;;;;;;;21.60;34.60;;;;;;8363185;28;20417;-45
2022/05/02 22:28:32;;;;;;;;;;;21.60;34.60;;;;;;8363355;28;19921;-46
2022/05/02 22:32:32;;;;;;;;;;;21.60;34.60;;;;;;8363462;28;20011;-46
2022/05/02 22:36:32;;;;;;;;;;;21.60;34.60;;;;;;8362772;28;20324;-47
2022/05/02 22:40:35;;;;;;;;;;;21.60;34.60;;;;;;8363615;28;19916;-46
2022/05/02 22:44:36;;;;;;;;;;;21.60;34.60;;;;;;8362761;28;19928;-46
2022/05/02 22:48:36;;;;;;;;;;;21.60;34.60;;;;;;8363141;28;19963;-45
2022/05/02 22:52:37;;;;;;;;;;;21.60;34.60;;;;;;8362919;28;19917;-48
2022/05/02 22:56:46;;;;;;;;;;;21.50;34.60;;;;;;8362543;28;19940;-47
2022/05/02 23:00:47;;;;;;;;;;;21.50;34.60;;;;;;8362813;28;19917;-46
2022/05/02 23:04:57;;;;;;;;;;;21.50;34.60;;;;;;8363352;28;19929;-46
2022/05/02 23:08:59;;;;;;;;;;;21.50;34.60;;;;;;8362204;28;19952;-46
2022/05/02 23:13:00;;;;;;;;;;;21.40;34.60;;;;;;8362544;28;20277;-45
2022/05/02 23:17:01;;;;;;;;;;;21.50;34.70;;;;;;8362583;28;19917;-45
2022/05/02 23:21:02;;;;;;;;;;;21.50;34.70;;;;;;8362344;28;20396;-45
2022/05/02 23:25:03;;;;;;;;;;;21.50;34.70;;;;;;8369503;28;19920;-44
2022/05/02 23:29:03;;;;;;;;;;;21.50;34.70;;;;;;8368758;28;20517;-47
2022/05/02 23:33:21;;;;;;;;;;;21.40;34.80;;;;;;8368323;28;19917;-47
2022/05/02 23:37:37;;;;;;;;;;;21.40;34.70;;;;;;8368911;28;19917;-45
2022/05/02 23:41:40;;;;;;;;;;;21.40;34.80;;;;;;8369188;28;20019;-46
2022/05/02 23:45:51;;;;;;;;;;;21.40;34.80;;;;;;8335349;28;19921;-46
2022/05/02 23:49:58;;;;;;;;;;;21.40;34.80;;;;;;8317769;28;19913;-46
2022/05/02 23:54:06;;;;;;;;;;;21.40;34.80;;;;;;8335098;28;19921;-46
2022/05/02 23:58:06;;;;;;;;;;;21.30;34.80;;;;;;8335068;28;19932;-49
